createdAt,value
2023-06-08T00:02:29.888Z,5.57
2023-06-08T00:04:58.711Z,7.97
2023-06-08T00:07:25.974Z,5.50
2023-06-08T00:09:52.699Z,6.60
2023-06-08T00:12:19.734Z,6.47
2023-06-08T00:14:46.955Z,6.20
2023-06-08T00:17:14.811Z,6.10
2023-06-08T00:19:44.021Z,5.60
2023-06-08T00:22:14.850Z,5.97
2023-06-08T00:24:41.701Z,5.87
2023-06-08T00:27:09.556Z,8.77
2023-06-08T00:29:36.306Z,6.23
2023-06-08T00:32:03.165Z,6.57
2023-06-08T00:34:29.891Z,6.70
2023-06-08T00:36:56.643Z,5.97
2023-06-08T00:39:24.024Z,6.27
2023-06-08T00:41:50.658Z,8.77
2023-06-08T00:44:17.262Z,5.73
2023-06-08T00:46:44.103Z,6.43
2023-06-08T00:49:17.421Z,5.60
2023-06-08T00:51:46.165Z,6.47
2023-06-08T00:54:15.929Z,6.70
2023-06-08T00:56:49.986Z,6.60
2023-06-08T00:59:17.668Z,6.47
2023-06-08T01:01:46.340Z,5.60
2023-06-08T01:04:15.840Z,6.40
2023-06-08T01:06:47.543Z,6.47
2023-06-08T01:09:14.167Z,6.17
2023-06-08T01:12:04.560Z,7.10
2023-06-08T01:14:42.465Z,6.53
2023-06-08T01:17:13.749Z,6.30
2023-06-08T01:20:09.239Z,6.10
2023-06-08T01:22:39.181Z,5.67
2023-06-08T01:25:09.820Z,5.77
2023-06-08T01:27:38.260Z,6.07
2023-06-08T01:30:06.377Z,5.97
2023-06-08T01:32:33.889Z,7.27
2023-06-08T01:35:00.854Z,7.40
2023-06-08T01:37:27.333Z,6.03
2023-06-08T01:40:31.163Z,6.33
2023-06-08T01:43:00.031Z,7.13
2023-06-08T01:45:31.209Z,6.20
2023-06-08T01:48:07.085Z,7.37
2023-06-08T01:50:35.590Z,6.20
2023-06-08T01:53:02.562Z,7.40
2023-06-08T01:55:29.264Z,6.87
2023-06-08T01:57:56.666Z,6.27
2023-06-08T02:00:23.748Z,6.97
2023-06-08T02:02:50.824Z,5.77
2023-06-08T02:05:18.201Z,6.90
2023-06-08T02:07:45.070Z,6.77
2023-06-08T02:10:13.264Z,6.80
2023-06-08T02:12:41.056Z,6.33
2023-06-08T02:15:08.256Z,7.33
2023-06-08T02:17:36.813Z,6.97
2023-06-08T02:20:10.527Z,6.67
2023-06-08T02:22:38.633Z,6.37
2023-06-08T02:25:07.122Z,6.87
2023-06-08T02:27:37.810Z,6.33
2023-06-08T02:30:08.562Z,6.23
2023-06-08T02:32:35.680Z,6.00
2023-06-08T02:35:04.947Z,6.70
2023-06-08T02:37:32.154Z,6.33
2023-06-08T02:39:58.952Z,6.90
2023-06-08T02:42:25.695Z,6.37
2023-06-08T02:44:52.358Z,6.33
2023-06-08T02:47:19.376Z,7.37
2023-06-08T02:49:46.136Z,6.63
2023-06-08T02:52:12.845Z,6.83
2023-06-08T02:54:39.431Z,6.60
2023-06-08T02:57:06.936Z,6.57
2023-06-08T02:59:34.098Z,6.57
2023-06-08T03:02:00.769Z,6.13
2023-06-08T03:04:29.193Z,7.90
2023-06-08T03:06:55.868Z,8.10
2023-06-08T03:09:29.742Z,9.33
2023-06-08T03:11:57.740Z,6.70
2023-06-08T03:14:29.899Z,7.37
2023-06-08T03:17:03.842Z,7.40
2023-06-08T03:19:31.736Z,10.97
2023-06-08T03:22:06.098Z,7.83
2023-06-08T03:24:34.158Z,8.57
2023-06-08T03:27:04.939Z,7.00
2023-06-08T03:29:31.904Z,7.63
2023-06-08T03:31:59.053Z,7.57
2023-06-08T03:34:29.243Z,7.37
2023-06-08T03:36:56.718Z,8.13
2023-06-08T03:39:24.090Z,7.97
2023-06-08T03:41:51.259Z,7.60
2023-06-08T03:44:18.653Z,9.13
2023-06-08T03:46:46.478Z,7.27
2023-06-08T03:49:13.113Z,6.40
2023-06-08T03:51:40.702Z,8.53
2023-06-08T03:54:07.480Z,7.20
2023-06-08T03:56:34.068Z,7.43
2023-06-08T03:59:01.274Z,7.77
2023-06-08T04:01:28.436Z,8.03
2023-06-08T04:03:55.579Z,7.67
2023-06-08T04:06:24.572Z,7.77
2023-06-08T04:08:51.839Z,7.13
2023-06-08T04:11:18.543Z,7.40
2023-06-08T04:13:45.209Z,7.50
2023-06-08T04:16:12.826Z,7.63
2023-06-08T04:18:41.243Z,8.20
2023-06-08T04:21:08.633Z,7.73
2023-06-08T04:23:38.466Z,7.00
2023-06-08T04:26:07.496Z,7.83
2023-06-08T04:28:35.303Z,7.47
2023-06-08T04:31:02.662Z,7.83
2023-06-08T04:33:29.560Z,7.33
2023-06-08T04:35:57.798Z,7.20
2023-06-08T04:38:24.567Z,8.13
2023-06-08T04:40:55.848Z,7.10
2023-06-08T04:43:23.552Z,7.30
2023-06-08T04:45:58.732Z,6.80
2023-06-08T04:48:27.203Z,7.67
2023-06-08T04:50:54.663Z,8.17
2023-06-08T04:53:24.798Z,6.83
2023-06-08T04:55:58.248Z,9.13
2023-06-08T04:58:26.522Z,7.47
2023-06-08T05:00:53.796Z,8.90
2023-06-08T05:03:21.372Z,7.40
2023-06-08T05:05:48.502Z,10.07
2023-06-08T05:08:15.619Z,7.70
2023-06-08T05:10:42.251Z,8.07
2023-06-08T05:13:09.102Z,8.97
2023-06-08T05:15:35.897Z,8.93
2023-06-08T05:18:02.548Z,8.20
2023-06-08T05:20:30.892Z,9.00
2023-06-08T05:22:58.200Z,8.13
2023-06-08T05:25:24.951Z,7.40
2023-06-08T05:27:51.721Z,8.13
2023-06-08T05:30:18.364Z,7.87
2023-06-08T05:32:44.955Z,7.30
2023-06-08T05:35:11.654Z,7.33
2023-06-08T05:37:38.220Z,6.23
2023-06-08T05:40:06.091Z,6.80
2023-06-08T05:42:32.941Z,6.33
2023-06-08T05:44:59.565Z,6.50
2023-06-08T05:47:30.014Z,6.70
2023-06-08T05:49:58.796Z,7.80
2023-06-08T05:52:25.332Z,8.07
2023-06-08T05:54:51.913Z,8.57
2023-06-08T05:57:18.570Z,7.70
2023-06-08T05:59:45.301Z,7.53
2023-06-08T06:02:12.519Z,7.93
2023-06-08T06:04:39.302Z,8.87
2023-06-08T06:07:07.327Z,8.07
2023-06-08T06:09:34.494Z,8.13
2023-06-08T06:12:01.298Z,9.50
2023-06-08T06:14:36.450Z,7.97
2023-06-08T06:17:07.477Z,8.10
2023-06-08T06:19:38.134Z,8.53
2023-06-08T06:22:10.745Z,7.60
2023-06-08T06:24:37.988Z,8.90
2023-06-08T06:27:06.700Z,7.87
2023-06-08T06:29:33.921Z,8.23
2023-06-08T06:32:01.017Z,7.60
2023-06-08T06:34:27.792Z,7.80
2023-06-08T06:36:54.759Z,7.97
2023-06-08T06:39:21.582Z,7.83
2023-06-08T06:41:49.573Z,8.00
2023-06-08T06:44:16.280Z,7.43
2023-06-08T06:46:43.203Z,8.57
2023-06-08T06:49:09.831Z,10.10
2023-06-08T06:51:37.584Z,8.33
2023-06-08T06:54:04.602Z,8.00
2023-06-08T06:56:32.094Z,7.23
2023-06-08T06:58:58.690Z,8.17
2023-06-08T07:01:25.661Z,8.53
2023-06-08T07:03:52.583Z,8.70
2023-06-08T07:06:24.382Z,8.43
2023-06-08T07:08:51.557Z,7.83
2023-06-08T07:11:18.109Z,7.90
2023-06-08T07:13:44.839Z,8.23
2023-06-08T07:16:11.475Z,7.30
2023-06-08T07:18:38.441Z,7.93
2023-06-08T07:21:05.049Z,7.53
2023-06-08T07:23:40.578Z,8.67
2023-06-08T07:26:29.081Z,6.87
2023-06-08T07:28:58.751Z,7.33
2023-06-08T07:31:26.920Z,6.57
2023-06-08T07:33:53.696Z,7.50
2023-06-08T07:36:21.737Z,9.73
2023-06-08T07:38:51.779Z,7.73
2023-06-08T07:41:19.422Z,7.93
2023-06-08T07:43:46.444Z,7.03
2023-06-08T07:46:14.112Z,7.83
2023-06-08T07:48:40.722Z,7.50
2023-06-08T07:51:07.348Z,7.63
2023-06-08T07:53:38.582Z,8.90
2023-06-08T07:56:05.900Z,7.17
2023-06-08T07:58:33.156Z,7.63
2023-06-08T08:01:03.704Z,7.70
2023-06-08T08:03:30.811Z,7.80
2023-06-08T08:05:57.716Z,7.00
2023-06-08T08:08:24.486Z,7.70
2023-06-08T08:10:51.289Z,7.23
2023-06-08T08:13:18.960Z,7.33
2023-06-08T08:15:46.690Z,8.57
2023-06-08T08:18:14.472Z,7.47
2023-06-08T08:20:41.337Z,7.47
2023-06-08T08:23:08.040Z,7.93
2023-06-08T08:25:36.331Z,7.50
2023-06-08T08:28:03.094Z,7.80
2023-06-08T08:30:29.842Z,8.20
2023-06-08T08:32:56.686Z,8.20
2023-06-08T08:35:29.397Z,7.77
2023-06-08T08:37:57.491Z,9.00
2023-06-08T08:40:24.758Z,7.87
2023-06-08T08:43:17.064Z,8.70
2023-06-08T08:45:46.580Z,7.97
2023-06-08T08:48:16.855Z,8.13
2023-06-08T08:50:45.480Z,8.80
2023-06-08T08:53:13.137Z,9.07
2023-06-08T08:55:42.463Z,8.20
2023-06-08T08:58:10.716Z,8.13
2023-06-08T09:00:37.554Z,7.77
2023-06-08T09:03:04.472Z,8.27
2023-06-08T09:05:31.170Z,8.10
2023-06-08T09:07:57.924Z,8.43
2023-06-08T09:10:26.899Z,7.83
2023-06-08T09:12:58.482Z,8.70
2023-06-08T09:15:29.585Z,8.38
2023-06-08T09:17:57.324Z,10.27
2023-06-08T09:20:32.608Z,7.93
2023-06-08T09:22:59.870Z,8.87
2023-06-08T09:25:38.526Z,10.30
2023-06-08T09:28:18.962Z,9.55
2023-06-08T09:30:51.565Z,8.38
2023-06-08T09:33:29.102Z,8.77
2023-06-08T09:35:58.591Z,8.07
2023-06-08T09:38:29.089Z,8.23
2023-06-08T09:41:22.844Z,8.35
2023-06-08T09:43:51.679Z,8.55
2023-06-08T09:46:36.194Z,8.07
2023-06-08T09:49:08.422Z,6.95
2023-06-08T09:51:38.769Z,6.05
2023-06-08T09:54:06.935Z,5.68
2023-06-08T09:56:34.213Z,6.25
2023-06-08T09:59:07.770Z,6.38
2023-06-08T10:01:44.276Z,6.93
2023-06-08T10:04:30.921Z,6.85
2023-06-08T10:06:58.679Z,6.13
2023-06-08T10:09:32.113Z,6.07
2023-06-08T10:12:01.386Z,6.88
2023-06-08T10:14:28.176Z,10.07
2023-06-08T10:16:57.312Z,7.78
2023-06-08T10:19:24.984Z,6.22
2023-06-08T10:21:53.291Z,8.25
2023-06-08T10:24:23.295Z,5.85
2023-06-08T10:26:51.445Z,6.45
2023-06-08T10:29:27.059Z,6.53
2023-06-08T10:31:54.220Z,8.05
2023-06-08T10:34:21.047Z,6.93
2023-06-08T10:36:47.778Z,6.68
2023-06-08T10:39:17.395Z,6.25
2023-06-08T10:41:45.655Z,6.60
2023-06-08T10:44:27.322Z,5.55
2023-06-08T10:47:02.421Z,6.20
2023-06-08T10:49:31.344Z,5.97
2023-06-08T10:51:59.519Z,8.18
2023-06-08T10:54:26.858Z,6.00
2023-06-08T10:57:12.492Z,7.00
2023-06-08T10:59:42.733Z,5.57
2023-06-08T11:02:09.451Z,6.28
2023-06-08T11:04:40.472Z,5.75
2023-06-08T11:07:10.416Z,5.30
2023-06-08T11:09:37.992Z,5.95
2023-06-08T11:12:05.291Z,5.35
2023-06-08T11:14:31.878Z,5.45
2023-06-08T11:16:58.637Z,5.32
2023-06-08T11:19:29.250Z,6.32
2023-06-08T11:21:56.185Z,5.72
2023-06-08T11:24:30.090Z,4.47
2023-06-08T11:27:04.259Z,5.65
2023-06-08T11:29:32.292Z,6.30
2023-06-08T11:32:11.631Z,5.68
2023-06-08T11:34:39.156Z,5.15
2023-06-08T11:37:05.858Z,6.07
2023-06-08T11:39:34.732Z,5.63
2023-06-08T11:42:01.749Z,5.82
2023-06-08T11:44:28.408Z,4.97
2023-06-08T11:46:55.331Z,6.03
2023-06-08T11:49:21.959Z,5.72
2023-06-08T11:51:51.458Z,5.95
2023-06-08T11:54:18.428Z,4.97
2023-06-08T11:56:46.647Z,4.88
2023-06-08T11:59:17.121Z,5.30
2023-06-08T12:02:00.514Z,5.00
2023-06-08T12:04:35.187Z,5.97
2023-06-08T12:07:12.337Z,4.32
2023-06-08T12:09:39.605Z,5.47
2023-06-08T12:12:10.525Z,5.57
2023-06-08T12:14:37.348Z,6.20
2023-06-08T12:17:07.391Z,5.75
2023-06-08T12:19:34.036Z,4.80
2023-06-08T12:22:00.726Z,5.80
2023-06-08T12:24:27.358Z,5.90
2023-06-08T12:26:53.965Z,5.35
2023-06-08T12:29:23.013Z,5.43
2023-06-08T12:31:50.165Z,5.55
2023-06-08T12:34:16.892Z,6.10
2023-06-08T12:36:43.540Z,5.13
2023-06-08T12:39:10.306Z,4.60
2023-06-08T12:41:36.945Z,5.22
2023-06-08T12:44:04.173Z,4.53
2023-06-08T12:46:30.751Z,5.80
2023-06-08T12:48:59.397Z,5.43
2023-06-08T12:51:26.068Z,6.57
2023-06-08T12:53:52.580Z,5.93
2023-06-08T12:56:19.214Z,4.93
2023-06-08T12:58:45.836Z,8.20
2023-06-08T13:01:12.462Z,5.47
2023-06-08T13:03:40.654Z,5.28
2023-06-08T13:06:07.645Z,5.45
2023-06-08T13:08:34.254Z,4.72
2023-06-08T13:11:01.864Z,5.60
2023-06-08T13:13:28.902Z,5.35
2023-06-08T13:15:56.416Z,5.70
2023-06-08T13:18:23.883Z,5.43
2023-06-08T13:20:50.675Z,5.20
2023-06-08T13:23:17.933Z,5.57
2023-06-08T13:25:44.623Z,5.70
2023-06-08T13:28:12.675Z,5.38
2023-06-08T13:30:39.332Z,6.97
2023-06-08T13:33:05.963Z,5.80
2023-06-08T13:35:33.350Z,5.70
2023-06-08T13:38:00.517Z,5.68
2023-06-08T13:40:33.168Z,5.80
2023-06-08T13:43:00.909Z,5.38
2023-06-08T13:45:28.139Z,6.35
2023-06-08T13:47:55.545Z,6.03
2023-06-08T13:50:23.344Z,6.30
2023-06-08T13:52:50.316Z,5.53
2023-06-08T13:55:17.413Z,5.78
2023-06-08T13:57:44.054Z,6.05
2023-06-08T14:00:12.184Z,5.53
2023-06-08T14:02:48.476Z,6.13
2023-06-08T14:05:19.647Z,5.32
2023-06-08T14:07:47.118Z,7.85
2023-06-08T14:10:14.074Z,4.97
2023-06-08T14:12:51.739Z,5.05
2023-06-08T14:15:18.920Z,5.80
2023-06-08T14:17:46.422Z,5.32
2023-06-08T14:20:13.314Z,7.05
2023-06-08T14:22:39.934Z,5.93
2023-06-08T14:25:12.112Z,6.93
2023-06-08T14:27:38.689Z,6.15
2023-06-08T14:30:07.075Z,6.10
2023-06-08T14:32:34.121Z,5.70
2023-06-08T14:35:00.832Z,6.18
2023-06-08T14:37:39.865Z,6.35
2023-06-08T14:40:07.790Z,5.40
2023-06-08T14:42:34.771Z,5.75
2023-06-08T14:45:01.409Z,5.60
2023-06-08T14:47:27.969Z,6.32
2023-06-08T14:49:58.557Z,5.50
2023-06-08T14:52:25.061Z,6.07
2023-06-08T14:54:51.664Z,5.18
2023-06-08T14:57:18.295Z,6.72
2023-06-08T14:59:44.905Z,6.72
2023-06-08T15:02:11.554Z,5.82
2023-06-08T15:04:40.767Z,6.32
2023-06-08T15:07:07.611Z,6.05
2023-06-08T15:09:34.041Z,5.97
2023-06-08T15:12:00.639Z,6.40
2023-06-08T15:14:28.433Z,6.57
2023-06-08T15:16:54.929Z,6.60
2023-06-08T15:19:21.511Z,7.40
2023-06-08T15:21:48.201Z,5.75
2023-06-08T15:24:14.882Z,6.28
2023-06-08T15:26:41.559Z,6.20
2023-06-08T15:29:09.862Z,9.85
2023-06-08T15:31:38.813Z,6.22
2023-06-08T15:34:05.470Z,5.97
2023-06-08T15:36:32.114Z,5.90
2023-06-08T15:38:59.082Z,8.05
2023-06-08T15:41:26.337Z,6.85
2023-06-08T15:43:52.948Z,6.18
2023-06-08T15:46:19.616Z,5.65
2023-06-08T15:48:49.419Z,5.85
2023-06-08T15:51:15.941Z,6.10
2023-06-08T15:53:43.215Z,6.00
2023-06-08T15:56:11.490Z,6.43
2023-06-08T15:58:40.707Z,5.68
2023-06-08T16:01:07.300Z,5.43
2023-06-08T16:03:33.896Z,6.60
2023-06-08T16:06:00.518Z,5.40
2023-06-08T16:08:27.975Z,5.72
2023-06-08T16:11:03.694Z,4.78
2023-06-08T16:13:30.998Z,5.72
2023-06-08T16:15:57.912Z,8.63
2023-06-08T16:18:25.147Z,5.70
2023-06-08T16:20:52.176Z,7.88
2023-06-08T16:23:21.395Z,5.97
2023-06-08T16:25:50.732Z,6.10
2023-06-08T16:28:17.195Z,7.43
2023-06-08T16:30:43.943Z,5.28
2023-06-08T16:33:11.081Z,6.32
2023-06-08T16:35:38.141Z,5.78
2023-06-08T16:38:09.625Z,5.70
2023-06-08T16:40:36.186Z,5.68
2023-06-08T16:43:02.701Z,6.50
2023-06-08T16:45:32.499Z,6.63
2023-06-08T16:47:59.496Z,6.47
2023-06-08T16:50:32.286Z,5.15
2023-06-08T16:52:58.840Z,5.10
2023-06-08T16:55:25.328Z,5.60
2023-06-08T16:57:51.944Z,4.72
2023-06-08T17:00:18.875Z,5.75
2023-06-08T17:02:55.089Z,4.90
2023-06-08T17:05:21.705Z,5.32
2023-06-08T17:07:48.310Z,4.80
2023-06-08T17:10:14.910Z,4.97
2023-06-08T17:12:41.504Z,5.47
2023-06-08T17:15:15.444Z,6.85
2023-06-08T17:17:41.929Z,5.35
2023-06-08T17:20:09.211Z,5.45
2023-06-08T17:22:35.888Z,4.32
2023-06-08T17:25:02.464Z,4.60
2023-06-08T17:27:28.940Z,4.57
2023-06-08T17:29:56.700Z,4.88
2023-06-08T17:32:25.089Z,4.00
2023-06-08T17:34:52.121Z,5.10
2023-06-08T17:37:19.070Z,4.20
2023-06-08T17:39:45.584Z,4.45
2023-06-08T17:42:19.128Z,3.95
2023-06-08T17:44:45.678Z,4.18
2023-06-08T17:47:12.511Z,5.60
2023-06-08T17:49:42.736Z,4.15
2023-06-08T17:52:09.677Z,4.15
2023-06-08T17:54:40.407Z,4.45
2023-06-08T17:57:07.157Z,5.32
2023-06-08T17:59:33.658Z,4.35
2023-06-08T18:02:00.941Z,4.40
2023-06-08T18:04:27.492Z,4.30
2023-06-08T18:06:54.058Z,6.75
2023-06-08T18:09:26.200Z,4.55
2023-06-08T18:11:55.794Z,4.38
2023-06-08T18:14:22.520Z,4.50
2023-06-08T18:16:49.178Z,4.45
2023-06-08T18:19:15.861Z,4.25
2023-06-08T18:21:43.546Z,4.68
2023-06-08T18:24:10.845Z,4.82
2023-06-08T18:26:37.548Z,4.35
2023-06-08T18:29:04.364Z,4.40
2023-06-08T18:31:31.085Z,4.50
2023-06-08T18:33:57.601Z,4.75
2023-06-08T18:36:27.451Z,4.53
2023-06-08T18:38:56.120Z,4.43
2023-06-08T18:41:23.232Z,5.00
2023-06-08T18:43:50.576Z,5.03
2023-06-08T18:46:18.555Z,4.72
2023-06-08T18:48:47.274Z,4.32
2023-06-08T18:51:13.810Z,4.60
2023-06-08T18:53:40.358Z,4.45
2023-06-08T18:56:06.858Z,4.32
2023-06-08T18:58:33.386Z,5.70
2023-06-08T19:00:59.929Z,4.68
2023-06-08T19:03:26.601Z,4.30
2023-06-08T19:05:53.205Z,4.88
2023-06-08T19:08:19.716Z,4.70
2023-06-08T19:10:46.475Z,5.50
2023-06-08T19:13:14.385Z,4.80
2023-06-08T19:15:43.770Z,5.70
2023-06-08T19:18:10.452Z,6.50
2023-06-08T19:20:37.057Z,4.50
2023-06-08T19:23:03.741Z,5.87
2023-06-08T19:25:30.300Z,4.90
2023-06-08T19:27:56.859Z,6.20
2023-06-08T19:30:23.461Z,5.13
2023-06-08T19:32:50.026Z,5.80
2023-06-08T19:35:16.675Z,5.13
2023-06-08T19:37:43.221Z,5.80
2023-06-08T19:40:11.276Z,6.33
2023-06-08T19:42:37.918Z,4.80
2023-06-08T19:45:04.928Z,4.77
2023-06-08T19:47:32.800Z,4.50
2023-06-08T19:50:00.059Z,4.83
2023-06-08T19:52:26.669Z,4.57
2023-06-08T19:54:53.168Z,5.53
2023-06-08T19:57:19.725Z,5.47
2023-06-08T19:59:46.336Z,6.50
2023-06-08T20:02:13.218Z,8.37
2023-06-08T20:04:39.875Z,6.90
2023-06-08T20:07:11.133Z,8.53
2023-06-08T20:09:39.119Z,5.77
2023-06-08T20:12:06.631Z,5.10
2023-06-08T20:14:33.203Z,7.03
2023-06-08T20:17:02.089Z,6.40
2023-06-08T20:19:32.132Z,5.93
2023-06-08T20:21:58.674Z,5.80
2023-06-08T20:24:25.580Z,9.50
2023-06-08T20:26:52.134Z,7.53
2023-06-08T20:29:18.698Z,9.60
2023-06-08T20:31:45.331Z,8.00
2023-06-08T20:34:12.298Z,6.10
2023-06-08T20:36:39.200Z,8.57
2023-06-08T20:39:06.493Z,8.67
2023-06-08T20:41:33.584Z,5.67
2023-06-08T20:44:02.794Z,6.20
2023-06-08T20:46:33.397Z,5.80
2023-06-08T20:49:03.417Z,5.97
2023-06-08T20:51:30.034Z,5.70
2023-06-08T20:53:56.697Z,8.20
2023-06-08T20:56:23.429Z,5.50
2023-06-08T20:58:50.086Z,6.23
2023-06-08T21:01:16.660Z,5.93
2023-06-08T21:03:46.681Z,6.27
2023-06-08T21:06:13.459Z,5.60
2023-06-08T21:08:40.006Z,5.80
2023-06-08T21:11:06.979Z,6.77
2023-06-08T21:13:33.722Z,7.03
2023-06-08T21:16:00.315Z,6.30
2023-06-08T21:18:26.964Z,5.73
2023-06-08T21:20:53.572Z,5.63
2023-06-08T21:23:20.068Z,8.70
2023-06-08T21:25:46.530Z,5.93
2023-06-08T21:28:13.107Z,5.97
2023-06-08T21:30:39.646Z,6.10
2023-06-08T21:33:06.354Z,6.60
2023-06-08T21:35:33.122Z,5.97
2023-06-08T21:37:59.652Z,7.07
2023-06-08T21:40:27.957Z,6.93
2023-06-08T21:42:54.950Z,6.20
2023-06-08T21:45:21.658Z,6.37
2023-06-08T21:47:48.306Z,6.87
2023-06-08T21:50:15.789Z,7.17
2023-06-08T21:52:43.514Z,6.57
2023-06-08T21:55:10.555Z,7.37
2023-06-08T21:57:37.269Z,6.13
2023-06-08T22:00:06.805Z,7.73
2023-06-08T22:02:33.462Z,7.20
2023-06-08T22:05:00.817Z,7.07
2023-06-08T22:07:27.421Z,9.70
2023-06-08T22:09:54.226Z,6.73
2023-06-08T22:12:23.246Z,6.77
2023-06-08T22:14:53.338Z,9.73
2023-06-08T22:17:20.607Z,6.63
2023-06-08T22:19:54.693Z,7.27
2023-06-08T22:22:33.530Z,5.97
2023-06-08T22:24:59.969Z,6.57
2023-06-08T22:27:26.504Z,6.70
2023-06-08T22:29:53.882Z,5.83
2023-06-08T22:32:20.485Z,5.90
2023-06-08T22:34:47.447Z,5.90
2023-06-08T22:37:14.009Z,5.60
2023-06-08T22:39:40.534Z,5.93
2023-06-08T22:42:07.706Z,6.20
2023-06-08T22:44:34.324Z,5.33
2023-06-08T22:47:01.270Z,6.20
2023-06-08T22:49:29.326Z,6.80
2023-06-08T22:51:56.341Z,5.60
2023-06-08T22:54:22.936Z,5.50
2023-06-08T22:56:49.466Z,5.57
2023-06-08T22:59:16.075Z,5.60
2023-06-08T23:01:42.942Z,5.70
2023-06-08T23:04:09.540Z,5.87
2023-06-08T23:06:37.855Z,6.03
2023-06-08T23:09:05.087Z,5.43
2023-06-08T23:11:33.325Z,6.57
2023-06-08T23:14:09.294Z,7.87
2023-06-08T23:16:35.879Z,5.57
2023-06-08T23:19:11.519Z,6.47
2023-06-08T23:21:41.017Z,6.00
2023-06-08T23:24:08.428Z,6.20
2023-06-08T23:26:37.908Z,6.23
2023-06-08T23:29:04.818Z,5.93
2023-06-08T23:31:33.944Z,6.40
2023-06-08T23:34:00.673Z,6.13
2023-06-08T23:36:27.318Z,6.47
2023-06-08T23:38:53.850Z,6.60
2023-06-08T23:41:22.404Z,6.87
2023-06-08T23:43:50.478Z,6.70
2023-06-08T23:46:17.278Z,5.83
2023-06-08T23:48:43.817Z,6.60
2023-06-08T23:51:10.311Z,6.73
2023-06-08T23:53:36.841Z,6.23
2023-06-08T23:56:03.422Z,7.20
2023-06-08T23:58:29.907Z,6.00
